Time;durP1;ratioP1;P1;durP2;ratioP2;P2;SDS_P1;SDS_P2;PMS_P1;PMS_P2;Temp;Humidity;BMP_temperature;BMP_pressure;BME280_temperature;BME280_humidity;BME280_pressure;Samples;Min_cycle;Max_cycle;Signal;HPM_P1;HPM_P2
2021/06/09 00:00:09;;;;;;;16.05;13.93;;;;;;;14.48;80.70;101502.75;5097034;28;20544;-53
2021/06/09 00:02:36;;;;;;;17.63;13.90;;;;;;;14.41;81.54;101495.81;5096672;28;20463;-51
2021/06/09 00:05:04;;;;;;;16.67;14.15;;;;;;;14.30;82.07;101494.13;5061386;28;20414;-52
2021/06/09 00:07:30;;;;;;;16.35;14.57;;;;;;;14.26;82.26;101499.41;5082540;28;20122;-55
2021/06/09 00:09:56;;;;;;;17.52;14.43;;;;;;;14.27;81.92;101496.81;5095942;28;20127;-56
2021/06/09 00:12:22;;;;;;;17.38;15.18;;;;;;;14.15;82.81;101494.25;5096131;28;20589;-52
2021/06/09 00:14:47;;;;;;;19.50;15.68;;;;;;;14.05;83.45;101493.44;5094375;28;20039;-55
2021/06/09 00:17:13;;;;;;;17.13;15.30;;;;;;;14.03;83.75;101495.19;5094062;28;20424;-54
2021/06/09 00:19:39;;;;;;;19.50;15.68;;;;;;;13.91;83.94;101496.09;5093169;28;20043;-52
2021/06/09 00:22:05;;;;;;;19.85;15.05;;;;;;;13.98;83.14;101496.09;5074510;28;20032;-54
2021/06/09 00:24:31;;;;;;;18.85;14.98;;;;;;;13.98;83.22;101496.94;5075000;28;20028;-55
2021/06/09 00:27:09;;;;;;;16.58;14.77;;;;;;;13.91;83.41;101492.63;5094536;28;21525;-55
2021/06/09 00:29:35;;;;;;;16.52;14.45;;;;;;;13.92;83.31;101487.34;5091778;28;20089;-55
2021/06/09 00:32:00;;;;;;;16.00;14.15;;;;;;;13.95;82.44;101489.97;5094977;28;20055;-52
2021/06/09 00:34:26;;;;;;;18.35;15.30;;;;;;;14.04;82.36;101493.41;5093396;28;20218;-53
2021/06/09 00:37:02;;;;;;;17.70;14.43;;;;;;;13.96;83.02;101488.22;5095381;27;20046;-52
2021/06/09 00:39:27;;;;;;;19.05;15.32;;;;;;;14.00;82.62;101500.47;5094709;28;20039;-52
2021/06/09 00:41:53;;;;;;;18.50;15.77;;;;;;;13.83;83.29;101487.44;5092504;28;20679;-52
2021/06/09 00:44:19;;;;;;;18.13;15.57;;;;;;;13.82;83.13;101490.03;5095210;28;20077;-52
2021/06/09 00:46:45;;;;;;;18.85;14.95;;;;;;;13.76;83.46;101489.19;5091341;28;20048;-53
2021/06/09 00:49:11;;;;;;;18.52;15.60;;;;;;;13.81;83.34;101483.06;5092996;28;20039;-53
2021/06/09 00:51:37;;;;;;;18.40;15.45;;;;;;;13.78;83.13;101491.81;5094615;28;20035;-55
2021/06/09 00:54:06;;;;;;;18.30;15.93;;;;;;;13.65;84.54;101488.34;5111832;27;20552;-50
2021/06/09 00:56:34;;;;;;;17.05;14.25;;;;;;;13.65;83.73;101490.13;5094294;28;20119;-52
2021/06/09 00:59:00;;;;;;;17.75;14.48;;;;;;;13.63;83.47;101490.13;5078105;27;20044;-52
2021/06/09 01:01:28;;;;;;;18.88;15.77;;;;;;;13.76;82.58;101478.69;5080793;28;20067;-55
2021/06/09 01:03:54;;;;;;;16.77;14.35;;;;;;;13.71;83.51;101476.97;5089421;28;20035;-52
2021/06/09 01:06:21;;;;;;;17.00;14.32;;;;;;;13.65;83.31;101482.22;5094283;28;20036;-52
2021/06/09 01:08:47;;;;;;;17.33;14.75;;;;;;;13.43;85.22;101477.06;5091446;28;20077;-53
2021/06/09 01:11:25;;;;;;;15.23;13.32;;;;;;;13.94;82.27;101480.34;5093935;28;20354;-51
2021/06/09 01:13:52;;;;;;;20.27;14.98;;;;;;;13.59;84.32;101477.88;5091950;27;20507;-53
2021/06/09 01:16:19;;;;;;;16.73;14.30;;;;;;;13.64;82.85;101473.50;5095016;27;20042;-52
2021/06/09 01:18:47;;;;;;;17.42;15.00;;;;;;;13.64;83.70;101476.13;5091683;28;20028;-54
2021/06/09 01:21:12;;;;;;;18.10;14.73;;;;;;;13.57;83.51;101483.16;5077079;28;20463;-50
2021/06/09 01:23:39;;;;;;;16.63;14.20;;;;;;;13.50;84.00;101488.41;5055043;28;20036;-54
2021/06/09 01:26:07;;;;;;;18.45;14.85;;;;;;;13.43;84.75;101485.81;5072121;28;20408;-52
2021/06/09 01:28:35;;;;;;;20.00;14.80;;;;;;;13.73;82.64;101483.06;5082332;28;20055;-50
2021/06/09 01:31:02;;;;;;;18.00;14.63;;;;;;;13.37;85.43;101477.09;5094619;28;20074;-54
2021/06/09 01:33:28;;;;;;;16.70;14.00;;;;;;;13.42;83.91;101480.59;5089485;27;20047;-50
2021/06/09 01:35:54;;;;;;;16.15;14.13;;;;;;;13.61;83.24;101481.41;5094298;28;20690;-50
2021/06/09 01:38:21;;;;;;;18.02;14.25;;;;;;;13.60;83.40;101483.13;5093414;27;20035;-54
2021/06/09 01:40:47;;;;;;;22.80;15.75;;;;;;;13.56;84.39;101484.03;5072898;28;20052;-51
2021/06/09 01:43:14;;;;;;;18.42;15.65;;;;;;;13.43;85.83;101482.31;5091721;28;20036;-51
2021/06/09 01:45:40;;;;;;;17.90;15.05;;;;;;;13.52;84.29;101492.78;5090497;28;20043;-54
2021/06/09 01:48:08;;;;;;;17.92;15.25;;;;;;;13.46;85.86;101490.19;5096496;28;20050;-51
2021/06/09 01:50:36;;;;;;;16.95;15.15;;;;;;;13.40;85.70;101492.84;5087537;28;20384;-51
2021/06/09 01:53:03;;;;;;;19.98;15.95;;;;;;;13.30;86.95;101491.97;5088374;28;20472;-53
2021/06/09 01:55:32;;;;;;;19.63;16.38;;;;;;;13.29;86.29;101487.56;5091091;28;20671;-52
2021/06/09 01:57:58;;;;;;;18.65;16.17;;;;;;;13.36;86.81;101486.72;5088219;28;20097;-51
2021/06/09 02:00:30;;;;;;;16.70;14.13;;;;;;;13.60;83.16;101488.38;5054200;28;20107;-51
2021/06/09 02:03:00;;;;;;;17.80;15.15;;;;;;;13.78;84.99;101483.94;5072699;28;20043;-54
2021/06/09 02:05:31;;;;;;;17.40;15.32;;;;;;;13.63;84.67;101485.72;5089294;28;20043;-50
2021/06/09 02:07:59;;;;;;;17.98;15.60;;;;;;;13.66;85.44;101490.09;5090130;28;20465;-50
2021/06/09 02:10:27;;;;;;;16.30;13.82;;;;;;;13.66;84.08;101484.00;5089962;28;20070;-53
2021/06/09 02:12:57;;;;;;;17.52;14.40;;;;;;;13.71;83.90;101487.47;5091698;28;20051;-54
2021/06/09 02:15:24;;;;;;;18.08;14.50;;;;;;;13.63;84.28;101484.88;5092222;28;20039;-52
2021/06/09 02:18:25;;;;;;;19.30;15.70;;;;;;;13.50;86.18;101489.31;5085694;27;20497;-53
2021/06/09 02:20:50;;;;;;;17.63;14.80;;;;;;;13.64;84.15;101486.63;5087080;28;20598;-51
2021/06/09 02:23:18;;;;;;;20.33;15.57;;;;;;;13.63;85.21;101487.50;5093544;28;20564;-54
2021/06/09 02:25:47;;;;;;;18.47;15.37;;;;;;;13.62;84.02;101485.75;5098978;27;20407;-51
2021/06/09 02:28:13;;;;;;;18.73;15.10;;;;;;;13.66;85.06;101484.00;5092686;28;20803;-54
2021/06/09 02:30:41;;;;;;;19.35;16.17;;;;;;;13.50;85.64;101483.16;5091915;28;20035;-51
2021/06/09 02:33:07;;;;;;;16.38;14.18;;;;;;;13.61;84.19;101477.00;5074128;28;20119;-51
2021/06/09 02:35:38;;;;;;;16.90;14.70;;;;;;;13.71;84.39;101476.97;5081431;28;20044;-52
2021/06/09 02:38:05;;;;;;;19.00;15.93;;;;;;;13.78;83.97;101483.94;5081718;28;20044;-51
2021/06/09 02:40:33;;;;;;;18.83;15.23;;;;;;;13.50;84.85;101486.69;5085503;27;20425;-50
2021/06/09 02:42:58;;;;;;;18.77;15.40;;;;;;;13.51;84.81;101491.03;5074687;28;20399;-51
2021/06/09 02:45:25;;;;;;;17.02;14.70;;;;;;;13.55;85.02;101486.66;5093158;28;20027;-50
2021/06/09 02:47:54;;;;;;;17.63;13.80;;;;;;;13.76;82.55;101480.44;5093145;28;20031;-51
2021/06/09 02:50:22;;;;;;;19.73;14.63;;;;;;;13.54;84.49;101488.41;5093768;28;20039;-51
2021/06/09 02:53:14;;;;;;;20.05;16.02;;;;;;;13.49;84.94;101479.69;5093342;28;20051;-50
2021/06/09 02:56:27;;;;;;;19.65;15.18;;;;;;;13.27;84.60;101479.69;5090828;28;20047;-52
2021/06/09 02:59:03;;;;;;;17.58;15.30;;;;;;;13.21;85.74;101490.25;5074257;28;20044;-50
2021/06/09 03:02:07;;;;;;;19.83;15.38;;;;;;;13.22;85.36;101476.25;5076421;28;20036;-52
2021/06/09 03:04:43;;;;;;;18.13;15.05;;;;;;;13.36;83.91;101481.47;5099172;27;20032;-51
2021/06/09 03:07:28;;;;;;;20.85;15.82;;;;;;;13.14;85.90;101491.13;5086525;28;20594;-54
2021/06/09 03:10:07;;;;;;;21.67;16.38;;;;;;;13.16;84.73;101486.75;5096542;28;20035;-54
2021/06/09 03:12:41;;;;;;;18.90;15.15;;;;;;;13.13;84.69;101484.13;5076760;28;20040;-51
2021/06/09 03:15:12;;;;;;;18.98;16.15;;;;;;;13.15;84.86;101487.59;5077613;28;20036;-51
2021/06/09 03:18:08;;;;;;;20.60;15.82;;;;;;;13.18;84.89;101476.22;5083851;28;20105;-52
2021/06/09 03:20:40;;;;;;;18.67;15.55;;;;;;;13.08;85.30;101483.25;5092173;28;20047;-52
2021/06/09 03:23:30;;;;;;;18.58;15.68;;;;;;;13.10;84.64;101484.13;5097679;28;20135;-52
2021/06/09 03:26:08;;;;;;;19.85;15.95;;;;;;;12.97;85.67;101479.78;5094906;28;20511;-50
2021/06/09 03:28:46;;;;;;;20.50;16.20;;;;;;;13.09;84.77;101478.00;5093264;28;20071;-53
2021/06/09 03:31:18;;;;;;;19.97;15.40;;;;;;;13.02;84.31;101484.16;5092444;28;20047;-52
2021/06/09 03:33:48;;;;;;;21.02;17.00;;;;;;;13.04;85.66;101479.78;5095370;28;20078;-51
2021/06/09 03:36:21;;;;;;;19.00;15.20;;;;;;;12.98;85.09;101476.28;5094269;28;20368;-51
2021/06/09 03:39:04;;;;;;;20.90;15.98;;;;;;;12.88;85.80;101478.91;5096628;27;20062;-53
2021/06/09 03:41:37;;;;;;;20.60;16.52;;;;;;;13.04;84.51;101474.53;5094066;28;20038;-53
2021/06/09 03:44:05;;;;;;;19.98;15.52;;;;;;;13.07;84.75;101468.38;5091395;28;20297;-51
2021/06/09 03:46:32;;;;;;;20.23;16.27;;;;;;;12.88;86.67;101478.91;5096141;28;20035;-52
2021/06/09 03:49:00;;;;;;;20.10;15.82;;;;;;;12.96;85.31;101471.03;5079071;27;20380;-50
2021/06/09 03:51:30;;;;;;;21.47;16.23;;;;;;;12.86;85.80;101478.06;5088814;28;20559;-50
2021/06/09 03:53:59;;;;;;;19.23;16.27;;;;;;;12.88;85.19;101475.44;5077750;28;20040;-55
2021/06/09 03:56:28;;;;;;;20.45;16.73;;;;;;;12.86;85.48;101477.16;5069464;28;20036;-52
2021/06/09 03:58:56;;;;;;;23.40;18.48;;;;;;;12.81;86.43;101486.78;5086050;28;20087;-52
2021/06/09 04:01:22;;;;;;;23.55;16.33;;;;;;;12.90;85.73;101474.56;5080100;27;20054;-55
2021/06/09 04:03:49;;;;;;;20.88;17.30;;;;;;;12.92;85.06;101469.31;5088191;28;20044;-51
2021/06/09 04:06:18;;;;;;;24.05;17.25;;;;;;;12.86;86.05;101478.06;5093456;28;20487;-51
2021/06/09 04:08:46;;;;;;;20.35;16.50;;;;;;;12.80;86.41;101471.94;5089394;28;20048;-52
2021/06/09 04:11:14;;;;;;;20.08;16.95;;;;;;;12.92;85.90;101478.03;5091487;28;20119;-53
2021/06/09 04:13:41;;;;;;;23.63;17.27;;;;;;;12.87;86.00;101482.41;5095626;28;20043;-54
2021/06/09 04:16:08;;;;;;;22.90;17.25;;;;;;;12.93;86.14;101476.28;5076922;28;20831;-51
2021/06/09 04:18:35;;;;;;;22.15;17.55;;;;;;;12.88;86.27;101472.81;5088790;28;20050;-52
2021/06/09 04:21:04;;;;;;;23.23;17.65;;;;;;;12.95;85.42;101470.16;5090452;27;20301;-51
2021/06/09 04:23:29;;;;;;;23.50;18.65;;;;;;;12.86;86.78;101477.16;5089849;27;20059;-51
2021/06/09 04:25:59;;;;;;;24.13;17.55;;;;;;;12.91;85.95;101472.78;5091787;27;20308;-54
2021/06/09 04:28:26;;;;;;;22.63;17.73;;;;;;;12.84;86.65;101477.16;5063303;28;20048;-53
2021/06/09 04:30:52;;;;;;;23.90;18.25;;;;;;;12.94;86.30;101478.03;5035523;28;20041;-52
2021/06/09 04:33:18;;;;;;;21.58;18.13;;;;;;;12.91;86.62;101483.28;5093308;28;20039;-52
2021/06/09 04:35:46;;;;;;;23.77;16.92;;;;;;;12.93;85.91;101476.28;5091879;27;20036;-54
2021/06/09 04:38:14;;;;;;;22.15;17.38;;;;;;;13.06;85.75;101487.66;5090626;28;20043;-52
2021/06/09 04:40:41;;;;;;;21.90;17.38;;;;;;;13.01;87.34;101486.78;5092581;28;20096;-51
2021/06/09 04:43:07;;;;;;;21.13;17.27;;;;;;;13.02;86.24;101486.78;5088660;28;20047;-52
2021/06/09 04:45:33;;;;;;;21.67;16.60;;;;;;;13.11;85.99;101485.88;5090448;28;20962;-54
2021/06/09 04:47:59;;;;;;;22.70;17.90;;;;;;;13.11;85.66;101483.25;5089232;28;20182;-51
2021/06/09 04:50:29;;;;;;;21.00;17.27;;;;;;;13.08;86.61;101481.53;5073776;28;20044;-52
2021/06/09 04:55:52;;;;;;;23.02;18.38;;;;;;;13.20;86.82;101487.63;5080213;28;20092;-50
2021/06/09 04:58:21;;;;;;;22.58;17.45;;;;;;;13.24;85.39;101477.09;5088204;28;20055;-50
2021/06/09 05:00:48;;;;;;;22.70;16.83;;;;;;;13.35;84.81;101484.09;5090016;28;20027;-54
2021/06/09 05:03:15;;;;;;;22.67;17.27;;;;;;;13.43;84.61;101484.94;5095637;28;20031;-49
2021/06/09 05:05:41;;;;;;;21.58;17.73;;;;;;;13.37;86.14;101487.59;5083327;28;20043;-51
2021/06/09 05:08:08;;;;;;;24.58;19.05;;;;;;;13.38;86.81;101489.34;5090982;28;20465;-52
2021/06/09 05:10:36;;;;;;;21.70;17.10;;;;;;;13.43;85.92;101484.94;5090445;27;20473;-50
2021/06/09 05:13:07;;;;;;;23.13;18.70;;;;;;;13.47;86.02;101485.81;5083144;27;20618;-50
2021/06/09 05:15:42;;;;;;;21.48;16.80;;;;;;;13.53;84.84;101489.28;5071822;28;20363;-52
2021/06/09 05:18:20;;;;;;;19.52;16.58;;;;;;;13.63;84.98;101485.72;5090421;28;20368;-53
2021/06/09 05:20:50;;;;;;;22.52;18.20;;;;;;;13.68;84.36;101488.38;5085756;28;20054;-55
2021/06/09 05:23:27;;;;;;;23.77;17.73;;;;;;;13.73;83.34;101486.56;5088352;28;20047;-52
2021/06/09 05:25:54;;;;;;;23.58;18.70;;;;;;;13.76;85.67;101483.94;5104228;27;20216;-51
2021/06/09 05:28:22;;;;;;;26.88;19.58;;;;;;;13.75;86.67;101479.56;5086504;28;20040;-52
2021/06/09 05:30:50;;;;;;;23.80;17.98;;;;;;;13.78;85.76;101486.56;5089744;28;20034;-50
2021/06/09 05:33:17;;;;;;;23.05;17.92;;;;;;;13.85;86.23;101484.78;5091310;28;20347;-54
2021/06/09 05:35:42;;;;;;;27.65;20.00;;;;;;;13.90;87.10;101488.22;5087163;28;20046;-53
2021/06/09 05:38:08;;;;;;;25.98;20.58;;;;;;;14.03;87.27;101489.06;5090451;28;20483;-51
2021/06/09 05:40:34;;;;;;;26.52;20.45;;;;;;;14.15;87.45;101486.34;5080427;28;20115;-54
2021/06/09 05:43:02;;;;;;;26.30;18.33;;;;;;;14.23;83.04;101483.66;5066016;27;20040;-51
2021/06/09 05:45:30;;;;;;;27.33;22.15;;;;;;;14.28;86.72;101490.63;5069121;28;20036;-52
2021/06/09 05:47:56;;;;;;;28.30;21.45;;;;;;;14.32;87.35;101491.50;5083860;28;20043;-51
2021/06/09 05:50:26;;;;;;;25.60;19.48;;;;;;;14.36;86.01;101493.22;5078218;28;20043;-51
2021/06/09 05:52:54;;;;;;;27.58;22.15;;;;;;;14.44;87.26;101490.50;5090805;28;20441;-53
2021/06/09 05:55:27;;;;;;;29.98;23.35;;;;;;;14.51;86.35;101491.34;5089152;28;20040;-52
2021/06/09 05:57:53;;;;;;;25.30;20.83;;;;;;;14.58;86.16;101498.28;5067792;28;20027;-54
2021/06/09 06:00:23;;;;;;;25.85;21.27;;;;;;;14.61;80.76;101491.25;5091744;27;20040;-51
2021/06/09 06:02:49;;;;;;;30.13;23.15;;;;;;;14.74;85.38;101504.34;5086466;28;20043;-53
2021/06/09 06:05:16;;;;;;;24.83;20.90;;;;;;;14.91;80.45;101499.81;5091222;28;20039;-52
2021/06/09 06:07:42;;;;;;;24.77;20.60;;;;;;;14.93;83.58;101490.13;5073704;28;20046;-52
2021/06/09 06:10:09;;;;;;;24.23;20.25;;;;;;;14.93;80.57;101494.53;5094638;28;20043;-54
2021/06/09 06:12:40;;;;;;;26.33;22.77;;;;;;;14.98;84.18;101496.25;5093189;28;20035;-51
2021/06/09 06:15:09;;;;;;;32.35;24.25;;;;;;;15.05;82.98;101490.91;5089727;28;20040;-51
2021/06/09 06:17:41;;;;;;;;;;;;;;;15.13;83.82;101487.31;5057684;28;20047;-54
2021/06/09 06:22:24;;;;;;;27.20;21.25;;;;;;;15.46;80.60;101489.56;5093427;27;105477;-52
2021/06/09 06:24:50;;;;;;;35.55;26.48;;;;;;;15.46;80.33;101493.06;5125928;27;20453;-51
2021/06/09 06:27:18;;;;;;;32.50;25.10;;;;;;;15.50;77.75;101488.66;5092281;27;20572;-50
2021/06/09 06:29:45;;;;;;;32.67;24.45;;;;;;;15.51;77.33;101490.41;5118488;27;20035;-52
2021/06/09 06:32:15;;;;;;;32.95;25.67;;;;;;;15.53;76.63;101488.59;5127806;27;20035;-57
2021/06/09 06:34:48;;;;;;;31.58;25.65;;;;;;;15.97;79.29;101487.19;5106828;27;20517;-54
2021/06/09 06:37:14;;;;;;;31.25;24.08;;;;;;;15.81;78.48;101488.28;5126836;27;20416;-54
2021/06/09 06:39:41;;;;;;;40.05;29.52;;;;;;;15.83;80.90;101490.00;5127561;27;20038;-54
2021/06/09 06:42:08;;;;;;;33.35;25.88;;;;;;;15.82;77.75;101493.56;5125089;27;20714;-51
2021/06/09 06:44:34;;;;;;;41.63;30.55;;;;;;;16.56;77.73;101499.50;5124922;27;20091;-52
2021/06/09 06:47:01;;;;;;;41.83;29.05;;;;;;;17.00;75.97;101492.63;5121822;27;20035;-51
2021/06/09 06:49:29;;;;;;;41.60;31.85;;;;;;;16.56;77.43;101499.50;5122582;27;20057;-54
2021/06/09 06:51:55;;;;;;;39.85;29.40;;;;;;;16.34;75.77;101497.19;5126426;27;20031;-51
2021/06/09 06:54:21;;;;;;;36.80;29.23;;;;;;;16.30;78.53;101499.91;5121874;27;20134;-54
2021/06/09 06:56:48;;;;;;;37.03;29.88;;;;;;;16.33;79.50;101500.72;5123264;27;20047;-56
2021/06/09 06:59:15;;;;;;;37.50;29.73;;;;;;;16.31;79.75;101489.34;5125671;27;20247;-56
2021/06/09 07:01:41;;;;;;;41.00;30.10;;;;;;;16.36;77.03;101497.16;5122157;27;20119;-54
2021/06/09 07:04:08;;;;;;;35.25;27.30;;;;;;;16.41;77.00;101500.59;5124685;27;20562;-52
2021/06/09 07:06:35;;;;;;;35.00;27.85;;;;;;;16.51;79.47;101499.56;5126081;27;20323;-49
2021/06/09 07:09:02;;;;;;;36.45;28.00;;;;;;;16.55;75.94;101494.25;5120578;27;20142;-54
2021/06/09 07:11:28;;;;;;;37.63;30.05;;;;;;;16.65;78.36;101501.09;5124711;27;20108;-53
2021/06/09 07:13:57;;;;;;;36.47;29.20;;;;;;;16.80;77.66;101499.97;5124474;27;20037;-54
2021/06/09 07:16:27;;;;;;;40.05;28.83;;;;;;;17.11;76.09;101500.34;5122533;27;20062;-50
2021/06/09 07:18:53;;;;;;;36.97;29.05;;;;;;;17.09;77.72;101498.63;5091463;27;20038;-53
2021/06/09 07:21:22;;;;;;;39.45;29.42;;;;;;;17.18;76.92;101501.97;5127780;27;20039;-54
2021/06/09 07:23:49;;;;;;;39.85;29.80;;;;;;;17.38;74.18;101498.06;5122689;27;20042;-53
2021/06/09 07:26:16;;;;;;;38.88;30.10;;;;;;;17.62;74.30;101504.59;5122633;27;20046;-53
2021/06/09 07:28:46;;;;;;;38.90;30.25;;;;;;;17.90;73.91;101495.22;5120589;27;20045;-51
2021/06/09 07:31:17;;;;;;;36.95;27.90;;;;;;;17.85;76.08;101501.47;5126262;27;20144;-49
2021/06/09 07:33:46;;;;;;;38.28;28.73;;;;;;;17.64;75.45;101494.00;5112453;27;20559;-51
2021/06/09 07:36:16;;;;;;;37.35;29.60;;;;;;;17.64;75.36;101489.59;5108311;27;20039;-54
2021/06/09 07:38:48;;;;;;;40.22;30.42;;;;;;;17.57;74.98;101495.03;5092555;27;20036;-53
2021/06/09 07:41:15;;;;;;;35.58;27.10;;;;;;;18.42;69.16;101493.19;5103173;27;20051;-49
2021/06/09 07:43:42;;;;;;;37.22;28.60;;;;;;;17.99;71.92;101487.97;5109730;27;20035;-51
2021/06/09 07:46:12;;;;;;;39.03;28.75;;;;;;;17.86;72.63;101497.03;5109394;27;20507;-51
2021/06/09 07:48:40;;;;;;;37.65;27.85;;;;;;;18.13;72.83;101487.66;5108425;27;20131;-51
2021/06/09 07:51:11;;;;;;;35.78;28.23;;;;;;;18.16;72.85;101492.00;5102020;27;20071;-50
2021/06/09 07:53:39;;;;;;;36.67;29.50;;;;;;;18.17;73.31;101491.13;5102775;27;20036;-53
2021/06/09 07:56:06;;;;;;;39.85;30.08;;;;;;;18.61;70.99;101491.81;5103039;27;20043;-53
2021/06/09 07:58:33;;;;;;;40.10;30.30;;;;;;;18.41;72.61;101491.44;5098278;27;20083;-54
2021/06/09 08:01:01;;;;;;;39.17;29.45;;;;;;;18.43;71.17;101493.16;5103512;27;20443;-53
2021/06/09 08:03:29;;;;;;;;;;;;;;;18.40;72.34;101495.88;5104854;27;20313;-54
2021/06/09 08:05:58;;;;;;;35.40;27.73;;;;;;;18.65;70.91;101503.19;5098060;27;19924;-53
2021/06/09 08:08:25;;;;;;;39.20;30.75;;;;;;;18.63;71.19;101494.41;5106576;27;20057;-52
2021/06/09 08:10:50;;;;;;;39.17;30.55;;;;;;;18.64;71.33;101493.53;5100285;27;20042;-52
2021/06/09 08:13:17;;;;;;;38.67;30.83;;;;;;;18.81;71.28;101490.44;5097973;27;20027;-52
2021/06/09 08:15:44;;;;;;;36.33;30.30;;;;;;;18.96;71.52;101487.41;5102773;27;20031;-51
2021/06/09 08:18:12;;;;;;;40.17;30.38;;;;;;;18.88;71.40;101481.44;5098913;27;20036;-53
2021/06/09 08:21:19;;;;;;;41.03;33.60;;;;;;;19.01;69.74;101487.28;5104823;27;20054;-53
2021/06/09 08:23:48;;;;;;;33.45;27.17;;;;;;;19.14;69.44;101490.47;5100734;27;20031;-51
2021/06/09 08:26:16;;;;;;;34.05;28.27;;;;;;;19.05;68.90;101481.88;5107669;27;20463;-52
2021/06/09 08:28:44;;;;;;;33.67;26.13;;;;;;;19.30;69.70;101483.84;5101088;27;20042;-54
2021/06/09 08:31:12;;;;;;;38.03;27.60;;;;;;;19.20;69.28;101487.66;5102649;27;20076;-52
2021/06/09 08:33:41;;;;;;;31.75;25.73;;;;;;;19.17;69.75;101488.59;5096268;27;20043;-52
2021/06/09 08:36:08;;;;;;;31.70;26.15;;;;;;;19.40;68.61;101480.00;5100080;27;20054;-53
2021/06/09 08:38:35;;;;;;;29.33;24.90;;;;;;;19.78;67.89;101482.44;5101713;27;20047;-52
2021/06/09 08:41:03;;;;;;;29.55;24.90;;;;;;;19.72;67.82;101486.16;5100119;27;20494;-52
2021/06/09 08:43:29;;;;;;;28.03;24.93;;;;;;;19.63;67.38;101491.72;5099509;27;20596;-51
2021/06/09 08:45:54;;;;;;;29.60;23.55;;;;;;;19.67;67.68;101485.41;5100467;27;20387;-53
2021/06/09 08:48:20;;;;;;;27.75;24.45;;;;;;;19.86;66.72;101487.56;5101365;27;20466;-53
2021/06/09 08:50:48;;;;;;;30.00;26.33;;;;;;;19.59;67.31;101484.75;5098729;27;20031;-50
2021/06/09 08:53:19;;;;;;;27.88;24.90;;;;;;;19.72;66.68;101488.81;5098227;27;20039;-52
2021/06/09 08:55:46;;;;;;;28.25;24.58;;;;;;;19.89;66.67;101482.16;5100872;27;20146;-54
2021/06/09 08:58:12;;;;;;;24.80;21.17;;;;;;;19.87;67.26;101484.84;5099324;27;20046;-53
2021/06/09 09:00:40;;;;;;;26.75;21.92;;;;;;;19.92;65.90;101486.50;5099851;27;20098;-56
2021/06/09 09:03:07;;;;;;;25.17;21.00;;;;;;;19.88;65.88;101488.38;5099132;27;20367;-54
2021/06/09 09:05:35;;;;;;;27.90;23.33;;;;;;;20.38;65.54;101485.00;5098854;27;20350;-51
2021/06/09 09:08:02;;;;;;;24.50;21.47;;;;;;;21.13;61.43;101483.38;5101939;27;20031;-56
2021/06/09 09:10:29;;;;;;;24.67;21.13;;;;;;;21.20;62.61;101474.28;5103490;27;20321;-52
2021/06/09 09:12:55;;;;;;;22.80;19.80;;;;;;;21.10;63.73;101487.06;5086767;28;20432;-51
2021/06/09 09:15:21;;;;;;;24.30;20.63;;;;;;;21.00;62.22;101483.81;5079385;28;20635;-56
2021/06/09 09:17:58;;;;;;;23.45;20.95;;;;;;;20.74;62.28;101485.63;5102446;27;20415;-54
2021/06/09 09:20:31;;;;;;;22.05;19.55;;;;;;;20.64;63.21;101477.97;5100820;27;20466;-52
2021/06/09 09:22:59;;;;;;;23.40;20.33;;;;;;;20.42;62.97;101487.53;5101479;27;20066;-53
2021/06/09 09:25:27;;;;;;;23.63;20.33;;;;;;;20.50;64.13;101489.06;5099619;27;20027;-55
2021/06/09 09:28:06;;;;;;;22.05;19.65;;;;;;;20.44;63.95;101483.97;5101311;27;20023;-55
2021/06/09 09:30:35;;;;;;;20.27;17.58;;;;;;;20.55;64.54;101482.69;5097999;27;20034;-54
2021/06/09 09:33:15;;;;;;;22.00;18.08;;;;;;;20.88;60.63;101471.84;5099826;27;20491;-53
2021/06/09 09:35:43;;;;;;;20.33;18.13;;;;;;;21.04;62.06;101474.81;5099569;27;20053;-56
2021/06/09 09:38:30;;;;;;;18.88;16.88;;;;;;;20.90;61.95;101471.78;5100344;27;20934;-54
2021/06/09 09:41:10;;;;;;;18.60;16.60;;;;;;;21.35;59.48;101473.72;5095082;27;20656;-52
2021/06/09 09:43:40;;;;;;;20.63;18.52;;;;;;;21.25;60.84;101473.19;5085780;28;20277;-54
2021/06/09 09:46:09;;;;;;;21.45;19.00;;;;;;;21.46;60.44;101485.75;5078059;28;20349;-54
2021/06/09 09:48:36;;;;;;;;;;;;;;;21.66;58.91;101488.56;5078515;28;20039;-52
2021/06/09 09:51:03;;;;;;;27.85;24.08;;;;;;;21.49;59.88;101475.88;5076410;28;20331;-52
2021/06/09 09:53:31;;;;;;;25.77;23.02;;;;;;;21.61;58.62;101482.53;5079346;28;20040;-52
2021/06/09 09:56:12;;;;;;;24.88;22.40;;;;;;;21.38;60.74;101478.06;5075645;28;20043;-54
2021/06/09 09:58:50;;;;;;;20.35;18.25;;;;;;;21.38;60.97;101486.91;5077796;28;20041;-54
2021/06/09 10:01:24;;;;;;;19.60;17.55;;;;;;;21.52;59.88;101485.53;5077121;28;20115;-54
2021/06/09 10:03:53;;;;;;;23.25;20.65;;;;;;;21.44;57.69;101484.00;5078761;28;20368;-53
2021/06/09 10:06:22;;;;;;;;;;;;;;;21.53;58.16;101492.59;5077928;28;20451;-54
2021/06/09 10:08:48;;;;;;;19.17;17.25;;;;;;;21.75;57.72;101485.56;5092960;27;20301;-56
2021/06/09 10:11:16;;;;;;;20.77;18.67;;;;;;;21.43;58.63;101487.59;5098356;27;20047;-55
2021/06/09 10:13:42;;;;;;;20.38;18.23;;;;;;;21.64;59.55;101490.41;5096850;27;20059;-55
2021/06/09 10:16:24;;;;;;;19.67;17.30;;;;;;;21.76;58.50;101487.25;5097247;27;20037;-51
2021/06/09 10:18:58;;;;;;;21.17;19.08;;;;;;;21.93;55.94;101481.31;5098395;27;20822;-55
2021/06/09 10:21:24;;;;;;;20.40;17.20;;;;;;;21.80;57.94;101474.72;5098913;27;20046;-55
2021/06/09 10:23:50;;;;;;;21.38;17.40;;;;;;;22.05;57.74;101479.94;5097611;27;20039;-56
2021/06/09 10:26:18;;;;;;;23.23;20.83;;;;;;;21.94;58.16;101479.50;5099359;27;20527;-55
2021/06/09 10:29:04;;;;;;;24.75;21.88;;;;;;;22.25;56.58;101476.47;5100890;27;20046;-54
2021/06/09 10:31:33;;;;;;;19.90;17.80;;;;;;;22.25;58.15;101484.47;5079243;28;20039;-54
2021/06/09 10:34:00;;;;;;;20.55;18.45;;;;;;;22.02;58.94;101474.72;5097875;27;20034;-54
2021/06/09 10:36:26;;;;;;;22.85;18.55;;;;;;;22.08;57.93;101481.59;5098349;27;20042;-55
2021/06/09 10:38:54;;;;;;;23.05;20.75;;;;;;;22.18;57.52;101482.09;5097510;27;20483;-55
2021/06/09 10:41:25;;;;;;;21.23;19.03;;;;;;;21.97;57.51;101481.16;5098338;27;20043;-51
2021/06/09 10:43:54;;;;;;;20.92;18.63;;;;;;;21.91;59.15;101483.13;5098781;27;20059;-54
2021/06/09 10:46:26;;;;;;;23.15;20.58;;;;;;;21.83;56.23;101487.03;5097183;27;20459;-53
2021/06/09 10:48:59;;;;;;;23.33;20.83;;;;;;;21.90;57.26;101489.41;5096606;27;20035;-51
2021/06/09 10:51:33;;;;;;;21.40;19.30;;;;;;;21.90;56.85;101483.19;5099852;27;20051;-54
2021/06/09 10:54:02;;;;;;;22.17;19.83;;;;;;;22.15;55.00;101475.09;5095121;27;20048;-52
2021/06/09 10:56:28;;;;;;;22.75;20.35;;;;;;;22.56;53.92;101479.69;5079697;27;20292;-52
2021/06/09 10:58:54;;;;;;;23.90;20.90;;;;;;;22.21;56.94;101476.63;5099004;27;20503;-55
2021/06/09 11:01:28;;;;;;;22.10;19.88;;;;;;;22.33;56.49;101473.47;5096738;27;20130;-53
2021/06/09 11:03:55;;;;;;;25.27;21.65;;;;;;;22.19;56.51;101467.88;5096634;27;20737;-53
2021/06/09 11:06:41;;;;;;;22.13;19.43;;;;;;;22.82;56.19;101467.03;5095945;27;20054;-55
2021/06/09 11:09:14;;;;;;;23.38;20.70;;;;;;;23.16;53.43;101465.59;5101557;27;20333;-55
2021/06/09 11:11:40;;;;;;;20.60;18.40;;;;;;;22.96;53.15;101464.66;5099428;27;20097;-56
2021/06/09 11:14:24;;;;;;;18.25;16.35;;;;;;;22.96;53.59;101467.31;5103593;27;20433;-52
2021/06/09 11:16:54;;;;;;;18.13;16.42;;;;;;;22.91;54.28;101464.81;5103371;27;20051;-53
2021/06/09 11:19:40;;;;;;;20.65;18.65;;;;;;;22.88;54.51;101458.78;5103406;27;20024;-54
2021/06/09 11:22:16;;;;;;;19.92;17.92;;;;;;;23.08;53.08;101460.56;5095115;27;20046;-58
2021/06/09 11:25:10;;;;;;;19.38;17.30;;;;;;;23.31;49.37;101446.22;5079205;28;20270;-56